Time;durP1;ratioP1;P1;durP2;ratioP2;P2;SDS_P1;SDS_P2;PMS_P1;PMS_P2;Temp;Humidity;BMP_temperature;BMP_pressure;BME280_temperature;BME280_humidity;BME280_pressure;Samples;Min_cycle;Max_cycle;Signal;HPM_P1;HPM_P2
2021/08/18 00:00:28;;;;;;;9.55;5.55;;;15.40;99.90;;;;;;4983837;28;20027;-72
2021/08/18 00:02:53;;;;;;;7.97;5.53;;;15.40;99.90;;;;;;4982306;28;20042;-72
2021/08/18 00:05:19;;;;;;;10.45;6.07;;;15.40;99.90;;;;;;4984962;28;20026;-73
2021/08/18 00:07:44;;;;;;;10.15;5.68;;;15.40;99.90;;;;;;4987773;28;20470;-72
2021/08/18 00:10:12;;;;;;;12.90;6.28;;;15.40;99.90;;;;;;4981656;28;20946;-73
2021/08/18 00:12:38;;;;;;;11.00;5.63;;;15.40;99.90;;;;;;4976579;28;20033;-72
2021/08/18 00:15:05;;;;;;;10.73;6.30;;;15.40;99.90;;;;;;4986494;28;20027;-73
2021/08/18 00:17:31;;;;;;;11.07;6.25;;;15.40;99.90;;;;;;4979186;28;20519;-72
2021/08/18 00:19:57;;;;;;;8.50;5.65;;;15.40;99.90;;;;;;4981613;28;20042;-72
2021/08/18 00:22:22;;;;;;;9.93;6.00;;;15.40;99.90;;;;;;4985584;28;20038;-72
2021/08/18 00:24:48;;;;;;;9.93;6.15;;;15.40;99.90;;;;;;4984429;28;20049;-72
2021/08/18 00:27:13;;;;;;;12.23;7.18;;;15.50;99.90;;;;;;4981244;28;20030;-72
2021/08/18 00:29:48;;;;;;;12.57;7.25;;;15.40;99.90;;;;;;4985291;28;20537;-72
2021/08/18 00:32:13;;;;;;;13.48;6.68;;;15.40;99.90;;;;;;4985790;28;20022;-73
2021/08/18 00:34:39;;;;;;;11.88;6.47;;;15.50;99.90;;;;;;4980739;28;20081;-72
2021/08/18 00:37:04;;;;;;;11.48;7.00;;;15.50;99.90;;;;;;4990247;28;20026;-72
2021/08/18 00:39:30;;;;;;;13.77;6.68;;;15.40;99.90;;;;;;4985030;28;20650;-73
2021/08/18 00:41:56;;;;;;;11.00;6.63;;;15.40;99.90;;;;;;4972782;28;20042;-72
2021/08/18 00:44:21;;;;;;;13.95;7.40;;;15.40;99.90;;;;;;4981042;28;20039;-72
2021/08/18 00:46:55;;;;;;;12.50;7.50;;;15.40;99.90;;;;;;4982395;28;20026;-72
2021/08/18 00:49:21;;;;;;;11.20;6.88;;;15.40;99.90;;;;;;4985253;28;20026;-73
2021/08/18 00:51:52;;;;;;;12.65;7.55;;;15.40;99.90;;;;;;4990242;28;20027;-73
2021/08/18 00:54:20;;;;;;;12.87;7.17;;;15.50;99.90;;;;;;4983537;28;20037;-73
2021/08/18 00:56:46;;;;;;;11.82;7.20;;;15.40;99.90;;;;;;4985581;28;20034;-72
2021/08/18 00:59:13;;;;;;;11.05;7.15;;;15.40;99.90;;;;;;4979147;28;20411;-72
2021/08/18 01:01:39;;;;;;;13.40;7.20;;;15.30;99.90;;;;;;4987402;28;20452;-72
2021/08/18 01:04:05;;;;;;;11.60;7.20;;;15.30;99.90;;;;;;4978715;28;20081;-73
2021/08/18 01:06:32;;;;;;;11.13;7.28;;;15.30;99.90;;;;;;4987105;28;20493;-73
2021/08/18 01:08:59;;;;;;;14.95;8.73;;;15.30;99.90;;;;;;4986336;28;20057;-73
2021/08/18 01:11:24;;;;;;;11.13;7.65;;;15.30;99.90;;;;;;4979437;28;20046;-73
2021/08/18 01:13:50;;;;;;;12.32;8.15;;;15.30;99.90;;;;;;4988477;28;20029;-72
2021/08/18 01:16:16;;;;;;;10.90;6.78;;;15.30;99.90;;;;;;4983412;28;20072;-73
2021/08/18 01:18:41;;;;;;;10.63;6.72;;;15.30;99.90;;;;;;4993179;28;20117;-72
2021/08/18 01:21:11;;;;;;;12.73;7.35;;;15.30;99.90;;;;;;4987491;28;20440;-72
2021/08/18 01:23:36;;;;;;;11.52;7.32;;;15.30;99.90;;;;;;4978858;28;20038;-73
2021/08/18 01:26:02;;;;;;;14.05;8.23;;;15.30;99.90;;;;;;4985327;28;20037;-73
2021/08/18 01:28:29;;;;;;;12.25;7.97;;;15.30;99.90;;;;;;4981330;28;20054;-73
2021/08/18 01:30:55;;;;;;;12.95;8.65;;;15.30;99.90;;;;;;4985105;28;20038;-72
2021/08/18 01:33:21;;;;;;;12.30;8.02;;;15.30;99.90;;;;;;4976057;28;20033;-72
2021/08/18 01:35:50;;;;;;;12.50;7.20;;;15.30;99.90;;;;;;4984504;28;20030;-73
2021/08/18 01:38:18;;;;;;;12.45;8.23;;;15.30;99.90;;;;;;4980811;28;20052;-72
2021/08/18 01:40:46;;;;;;;12.98;8.02;;;15.30;99.90;;;;;;4986999;28;20038;-72
2021/08/18 01:43:11;;;;;;;10.45;7.15;;;15.20;99.90;;;;;;4972980;28;20027;-72
2021/08/18 01:45:39;;;;;;;10.20;7.40;;;15.20;99.90;;;;;;4982828;28;20018;-72
2021/08/18 01:48:10;;;;;;;12.75;7.10;;;15.20;99.90;;;;;;4982879;28;20044;-72
2021/08/18 01:50:36;;;;;;;15.32;7.10;;;15.20;99.90;;;;;;4989057;28;20055;-72
2021/08/18 01:53:02;;;;;;;12.32;7.90;;;15.20;99.90;;;;;;4985937;28;20687;-72
2021/08/18 01:55:28;;;;;;;14.38;8.60;;;15.20;99.90;;;;;;4983523;28;20161;-72
2021/08/18 01:57:54;;;;;;;10.52;7.07;;;15.20;99.90;;;;;;4985526;28;20117;-72
2021/08/18 02:00:19;;;;;;;10.77;7.50;;;15.20;99.90;;;;;;4980942;28;20109;-72
2021/08/18 02:02:45;;;;;;;11.10;7.25;;;15.20;99.90;;;;;;4986273;28;20470;-72
2021/08/18 02:05:12;;;;;;;12.27;7.72;;;15.20;99.90;;;;;;4982498;28;20034;-72
2021/08/18 02:07:38;;;;;;;14.13;7.32;;;15.20;99.90;;;;;;4974047;28;20405;-72
2021/08/18 02:10:06;;;;;;;16.25;7.43;;;15.20;99.90;;;;;;4984008;28;20043;-72
2021/08/18 02:12:33;;;;;;;11.15;7.35;;;15.20;99.90;;;;;;4979368;28;20557;-72
2021/08/18 02:14:58;;;;;;;11.32;7.40;;;15.20;99.90;;;;;;4981666;28;20092;-72
2021/08/18 02:17:24;;;;;;;11.18;7.00;;;15.20;99.90;;;;;;4983264;28;20381;-72
2021/08/18 02:19:49;;;;;;;8.30;6.63;;;15.20;99.90;;;;;;4985883;28;20025;-72
2021/08/18 02:22:15;;;;;;;10.45;7.75;;;15.20;99.90;;;;;;4985356;28;20042;-72
2021/08/18 02:24:40;;;;;;;11.20;7.10;;;15.20;99.90;;;;;;4973476;28;20030;-72
2021/08/18 02:27:06;;;;;;;12.10;7.35;;;15.20;99.90;;;;;;4983031;28;20035;-72
2021/08/18 02:29:31;;;;;;;11.05;7.07;;;15.20;99.90;;;;;;4982068;28;20034;-72
2021/08/18 02:31:57;;;;;;;9.90;6.85;;;15.20;99.90;;;;;;4984703;28;20027;-72
2021/08/18 02:34:22;;;;;;;11.55;7.20;;;15.20;99.90;;;;;;4981633;28;20035;-72
2021/08/18 02:36:48;;;;;;;9.52;6.80;;;15.20;99.90;;;;;;4986626;28;20057;-72
2021/08/18 02:39:13;;;;;;;11.77;7.50;;;15.20;99.90;;;;;;4987803;28;20026;-72
2021/08/18 02:41:38;;;;;;;10.40;6.80;;;15.10;99.90;;;;;;4989457;28;20014;-72
2021/08/18 02:44:04;;;;;;;9.18;6.40;;;15.20;99.90;;;;;;4987479;28;20389;-72
2021/08/18 02:46:30;;;;;;;10.88;6.60;;;15.10;99.90;;;;;;4985478;28;20117;-72
2021/08/18 02:48:55;;;;;;;10.23;7.03;;;15.10;99.90;;;;;;4976479;28;20106;-72
2021/08/18 02:51:21;;;;;;;10.38;6.75;;;15.10;99.90;;;;;;4992644;28;20481;-72
2021/08/18 02:53:46;;;;;;;11.02;7.07;;;15.10;99.90;;;;;;4977236;28;20026;-72
2021/08/18 02:56:11;;;;;;;10.85;7.07;;;15.20;99.90;;;;;;4990682;28;20069;-72
2021/08/18 02:58:37;;;;;;;11.90;7.00;;;15.10;99.90;;;;;;4984277;28;20385;-72
2021/08/18 03:01:02;;;;;;;10.43;6.78;;;15.10;99.90;;;;;;4988432;28;20061;-72
2021/08/18 03:03:28;;;;;;;12.20;6.82;;;15.10;99.90;;;;;;4990808;28;20034;-72
2021/08/18 03:05:53;;;;;;;13.05;7.40;;;15.20;99.90;;;;;;4984095;28;20351;-72
2021/08/18 03:08:19;;;;;;;10.75;6.43;;;15.10;99.90;;;;;;4987108;28;20030;-72
2021/08/18 03:10:44;;;;;;;11.15;6.90;;;15.10;99.90;;;;;;4990268;28;20480;-72
2021/08/18 03:13:10;;;;;;;10.90;6.40;;;15.10;99.90;;;;;;4985907;28;20100;-72
2021/08/18 03:15:35;;;;;;;12.95;7.32;;;15.10;99.90;;;;;;4986218;28;20359;-72
2021/08/18 03:18:01;;;;;;;12.65;7.13;;;15.00;99.90;;;;;;4981528;28;20033;-73
2021/08/18 03:20:26;;;;;;;15.63;6.70;;;15.00;99.90;;;;;;4985597;28;20034;-72
2021/08/18 03:22:52;;;;;;;11.18;6.65;;;15.00;99.90;;;;;;4988415;28;20479;-72
2021/08/18 03:25:19;;;;;;;10.43;7.05;;;15.00;99.90;;;;;;4986778;28;20044;-72
2021/08/18 03:27:45;;;;;;;11.77;7.55;;;15.00;99.90;;;;;;4976814;28;20116;-72
2021/08/18 03:30:11;;;;;;;10.55;7.22;;;15.00;99.90;;;;;;4990688;28;20141;-72
2021/08/18 03:32:36;;;;;;;8.48;6.55;;;14.90;99.90;;;;;;4985102;28;20073;-72
2021/08/18 03:35:03;;;;;;;10.95;6.70;;;15.00;99.90;;;;;;4988439;28;20034;-72
2021/08/18 03:37:28;;;;;;;13.55;8.27;;;15.00;99.90;;;;;;4986327;28;20129;-72
2021/08/18 03:39:54;;;;;;;10.07;7.10;;;15.00;99.90;;;;;;4983189;28;20109;-72
2021/08/18 03:42:20;;;;;;;14.52;6.72;;;15.00;99.90;;;;;;4987135;28;20038;-72
2021/08/18 03:44:45;;;;;;;10.63;7.20;;;15.00;99.90;;;;;;4982515;28;20030;-71
2021/08/18 03:47:11;;;;;;;10.13;7.00;;;15.00;99.90;;;;;;4982558;28;20022;-72
2021/08/18 03:49:36;;;;;;;9.60;6.28;;;14.90;99.90;;;;;;4980236;28;20093;-72
2021/08/18 03:52:02;;;;;;;8.80;6.32;;;14.90;99.90;;;;;;4987055;28;20126;-71
2021/08/18 03:54:27;;;;;;;8.85;6.43;;;15.00;99.90;;;;;;4988134;28;20128;-72
2021/08/18 03:56:53;;;;;;;11.10;7.05;;;15.00;99.90;;;;;;4981484;28;20579;-72
2021/08/18 03:59:18;;;;;;;10.00;7.07;;;15.00;99.90;;;;;;4989083;28;20038;-72
2021/08/18 04:01:44;;;;;;;10.55;6.45;;;15.00;99.90;;;;;;4987448;28;20647;-72
2021/08/18 04:04:10;;;;;;;8.98;5.97;;;15.00;99.90;;;;;;4986185;28;20022;-72
2021/08/18 04:06:35;;;;;;;13.07;6.88;;;15.00;99.90;;;;;;4984525;28;20085;-72
2021/08/18 04:09:01;;;;;;;9.30;6.15;;;14.90;99.90;;;;;;4979543;28;20118;-72
2021/08/18 04:11:26;;;;;;;9.48;5.85;;;14.90;99.90;;;;;;4982440;28;20125;-72
2021/08/18 04:13:52;;;;;;;9.52;6.68;;;14.90;99.90;;;;;;4985638;28;20026;-71
2021/08/18 04:16:18;;;;;;;9.95;6.25;;;14.90;99.90;;;;;;4982944;28;20033;-72
2021/08/18 04:18:44;;;;;;;9.98;7.07;;;14.90;99.90;;;;;;4983084;28;20023;-72
2021/08/18 04:21:11;;;;;;;10.68;6.68;;;14.90;99.90;;;;;;4989351;28;20054;-72
2021/08/18 04:23:36;;;;;;;11.07;6.07;;;14.90;99.90;;;;;;4984637;28;20030;-72
2021/08/18 04:26:02;;;;;;;12.63;6.55;;;14.90;99.90;;;;;;4988969;28;20037;-72
2021/08/18 04:28:27;;;;;;;11.45;5.75;;;14.90;99.90;;;;;;4983494;28;20038;-72
2021/08/18 04:30:53;;;;;;;10.95;5.82;;;14.90;99.90;;;;;;4986763;28;20076;-72
2021/08/18 04:33:18;;;;;;;9.50;6.03;;;14.90;99.90;;;;;;4984443;28;20045;-72
2021/08/18 04:35:44;;;;;;;8.65;5.65;;;14.90;99.90;;;;;;4982773;28;20057;-72
2021/08/18 04:38:09;;;;;;;9.73;5.93;;;14.90;99.90;;;;;;4989555;28;20045;-72
2021/08/18 04:40:35;;;;;;;12.30;7.05;;;14.90;99.90;;;;;;4986676;28;20109;-72
2021/08/18 04:43:01;;;;;;;9.25;6.15;;;14.90;99.90;;;;;;4981466;28;20107;-72
2021/08/18 04:45:26;;;;;;;12.88;6.30;;;14.90;99.90;;;;;;4988063;28;20050;-71
2021/08/18 04:47:52;;;;;;;12.75;6.68;;;14.90;99.90;;;;;;4975313;28;20076;-72
2021/08/18 04:50:18;;;;;;;9.63;6.32;;;14.90;99.90;;;;;;4982494;28;20355;-72
2021/08/18 04:52:43;;;;;;;10.50;6.68;;;14.80;99.90;;;;;;4982747;28;20113;-72
2021/08/18 04:55:09;;;;;;;10.52;6.00;;;14.90;99.90;;;;;;4987084;28;20030;-72
2021/08/18 04:57:35;;;;;;;8.48;6.00;;;14.90;99.90;;;;;;4978429;28;20114;-73
2021/08/18 05:00:01;;;;;;;9.48;5.75;;;14.90;99.90;;;;;;4986110;28;20038;-73
2021/08/18 05:02:27;;;;;;;11.60;6.22;;;14.90;99.90;;;;;;4982303;28;20495;-73
2021/08/18 05:04:52;;;;;;;8.57;5.40;;;15.00;99.90;;;;;;4981243;28;20038;-72
2021/08/18 05:07:18;;;;;;;9.52;5.53;;;15.00;99.90;;;;;;4986980;28;20030;-73
2021/08/18 05:09:43;;;;;;;9.15;5.68;;;15.00;99.90;;;;;;4987191;28;20148;-73
2021/08/18 05:12:09;;;;;;;7.90;5.35;;;15.00;99.90;;;;;;4985535;28;20022;-70
2021/08/18 05:14:34;;;;;;;9.60;4.93;;;15.00;99.90;;;;;;4987831;28;20478;-70
2021/08/18 05:17:00;;;;;;;8.95;5.43;;;15.00;99.90;;;;;;4982728;28;20041;-71
2021/08/18 05:19:25;;;;;;;10.32;5.47;;;15.00;99.90;;;;;;4986637;28;20564;-71
2021/08/18 05:21:51;;;;;;;11.30;5.78;;;15.00;99.90;;;;;;4986330;28;20027;-71
2021/08/18 05:24:16;;;;;;;12.68;5.40;;;15.00;99.90;;;;;;4983996;28;20481;-73
2021/08/18 05:26:41;;;;;;;9.60;5.50;;;15.10;99.90;;;;;;4980099;28;20479;-73
2021/08/18 05:29:07;;;;;;;7.80;5.53;;;15.10;99.90;;;;;;4976436;28;20026;-73
2021/08/18 05:31:32;;;;;;;9.82;5.07;;;15.10;99.90;;;;;;4971094;28;20062;-74
2021/08/18 05:33:58;;;;;;;8.85;5.30;;;15.10;99.90;;;;;;4984568;28;20041;-72
2021/08/18 05:36:23;;;;;;;6.97;4.55;;;15.10;99.90;;;;;;4984434;28;20182;-71
2021/08/18 05:38:49;;;;;;;8.82;5.30;;;15.10;99.90;;;;;;4980908;28;20096;-68
2021/08/18 05:41:14;;;;;;;7.93;5.05;;;15.10;99.90;;;;;;4973097;28;20039;-69
2021/08/18 05:43:40;;;;;;;7.53;4.82;;;15.10;99.90;;;;;;4979727;28;20440;-69
2021/08/18 05:46:06;;;;;;;10.85;5.53;;;15.10;99.90;;;;;;4980760;28;20058;-69
2021/08/18 05:48:31;;;;;;;9.30;5.68;;;15.10;99.90;;;;;;4970909;28;20027;-67
2021/08/18 05:50:57;;;;;;;10.43;4.95;;;15.00;99.90;;;;;;4984159;28;20224;-68
2021/08/18 05:53:23;;;;;;;11.43;5.88;;;15.00;99.90;;;;;;4994957;28;20374;-68
2021/08/18 05:55:49;;;;;;;9.45;5.72;;;15.00;99.90;;;;;;4984565;28;20030;-68
2021/08/18 05:58:15;;;;;;;8.57;5.47;;;14.90;99.90;;;;;;4984086;28;20034;-69
2021/08/18 06:00:41;;;;;;;11.85;5.22;;;15.00;99.90;;;;;;4975709;28;20033;-67
2021/08/18 06:03:06;;;;;;;9.10;5.22;;;15.00;99.90;;;;;;4982142;28;20034;-68
2021/08/18 06:05:32;;;;;;;9.07;5.20;;;15.10;99.90;;;;;;4981068;28;20046;-69
2021/08/18 06:07:58;;;;;;;8.75;5.47;;;15.10;99.90;;;;;;4976342;28;20046;-69
2021/08/18 06:10:24;;;;;;;7.35;5.28;;;15.10;99.90;;;;;;4983799;28;20150;-68
2021/08/18 06:12:50;;;;;;;10.23;5.07;;;15.10;99.90;;;;;;4977561;28;20026;-69
2021/08/18 06:15:16;;;;;;;9.70;5.38;;;15.10;99.90;;;;;;4990311;28;20030;-68
2021/08/18 06:17:41;;;;;;;11.00;4.65;;;15.10;99.90;;;;;;4982319;28;20053;-67
2021/08/18 06:20:08;;;;;;;8.45;5.13;;;15.20;99.90;;;;;;4992249;28;20033;-68
2021/08/18 06:22:33;;;;;;;12.75;4.93;;;15.20;99.90;;;;;;4989565;28;20038;-68
2021/08/18 06:25:02;;;;;;;6.85;4.15;;;15.20;99.90;;;;;;4974469;28;20035;-68
2021/08/18 06:27:28;;;;;;;7.65;5.07;;;15.30;99.90;;;;;;4986266;28;20034;-68
2021/08/18 06:29:54;;;;;;;7.95;4.82;;;15.40;99.90;;;;;;4982156;28;20019;-68
2021/08/18 06:32:19;;;;;;;7.18;4.85;;;15.40;99.90;;;;;;4977207;28;20018;-68
2021/08/18 06:34:45;;;;;;;7.25;4.70;;;15.50;99.90;;;;;;4984846;28;20499;-68
2021/08/18 06:37:10;;;;;;;6.30;4.38;;;15.40;99.90;;;;;;4991178;28;20081;-68
2021/08/18 06:39:37;;;;;;;7.90;4.07;;;15.40;99.90;;;;;;4974431;28;20540;-68
2021/08/18 06:42:03;;;;;;;7.38;4.40;;;15.40;99.90;;;;;;4980928;28;20062;-68
2021/08/18 06:44:29;;;;;;;10.20;4.13;;;15.50;99.90;;;;;;4984212;28;20066;-68
2021/08/18 06:46:54;;;;;;;8.10;3.85;;;15.60;99.90;;;;;;4979322;28;20031;-68
2021/08/18 06:49:19;;;;;;;8.88;4.55;;;15.70;99.90;;;;;;4974354;28;20054;-68
2021/08/18 06:51:46;;;;;;;9.95;4.82;;;15.70;99.90;;;;;;4985669;28;20030;-68
2021/08/18 06:54:12;;;;;;;8.90;4.45;;;15.80;99.90;;;;;;4990358;28;20036;-68
2021/08/18 06:56:37;;;;;;;6.07;3.63;;;15.80;99.90;;;;;;4988657;28;20113;-68
2021/08/18 06:59:03;;;;;;;5.35;3.15;;;15.90;99.90;;;;;;4985274;28;20045;-71
2021/08/18 07:01:28;;;;;;;5.03;3.47;;;16.00;99.90;;;;;;4988704;28;20040;-72
2021/08/18 07:03:53;;;;;;;4.53;3.28;;;16.00;99.90;;;;;;4985341;28;20089;-71
2021/08/18 07:06:19;;;;;;;6.28;3.13;;;16.10;99.90;;;;;;4994122;28;20022;-69
2021/08/18 07:08:45;;;;;;;5.07;3.33;;;16.10;99.90;;;;;;4985301;28;20506;-71
2021/08/18 07:11:10;;;;;;;7.70;3.63;;;16.20;99.90;;;;;;4984693;28;20050;-70
2021/08/18 07:13:35;;;;;;;8.73;4.13;;;16.20;99.90;;;;;;4989116;28;20553;-71
2021/08/18 07:16:01;;;;;;;5.82;3.40;;;16.30;99.90;;;;;;4978675;28;20390;-71
2021/08/18 07:18:26;;;;;;;7.90;2.90;;;16.30;99.90;;;;;;4976364;28;20030;-71
2021/08/18 07:20:52;;;;;;;6.43;3.10;;;16.40;99.90;;;;;;4980791;28;20052;-71
2021/08/18 07:23:17;;;;;;;7.10;2.83;;;16.40;99.90;;;;;;4975561;28;20712;-71
2021/08/18 07:25:43;;;;;;;5.68;2.90;;;16.50;99.90;;;;;;4985032;28;20050;-71
2021/08/18 07:28:09;;;;;;;5.20;2.97;;;16.60;99.50;;;;;;4987676;28;20034;-71
2021/08/18 07:30:34;;;;;;;6.38;3.15;;;16.70;99.50;;;;;;4982752;28;20026;-71
2021/08/18 07:33:00;;;;;;;4.97;3.00;;;16.80;99.80;;;;;;4976146;28;20493;-70
2021/08/18 07:35:26;;;;;;;4.80;3.10;;;16.80;99.40;;;;;;4986706;28;20064;-71
2021/08/18 07:37:51;;;;;;;5.70;2.97;;;16.80;98.80;;;;;;4981170;28;20125;-73
2021/08/18 07:40:18;;;;;;;5.53;2.90;;;16.70;98.60;;;;;;4983502;28;20045;-70
2021/08/18 07:42:43;;;;;;;4.35;2.83;;;16.60;98.80;;;;;;4977624;28;20031;-70
2021/08/18 07:45:09;;;;;;;6.63;2.70;;;16.50;99.50;;;;;;4980304;28;20037;-70
2021/08/18 07:47:35;;;;;;;5.35;2.90;;;16.40;99.90;;;;;;4975950;28;20124;-70
2021/08/18 07:50:02;;;;;;;8.38;3.47;;;16.40;99.90;;;;;;4984673;28;20500;-71
2021/08/18 07:52:27;;;;;;;4.15;2.50;;;16.40;99.90;;;;;;4998210;28;20038;-71
2021/08/18 07:54:53;;;;;;;4.80;2.63;;;16.60;99.90;;;;;;4983266;28;20033;-70
2021/08/18 07:57:18;;;;;;;5.03;3.05;;;16.70;99.90;;;;;;4980733;28;20562;-71
2021/08/18 07:59:44;;;;;;;7.80;2.58;;;16.80;99.00;;;;;;4981854;28;21002;-70
2021/08/18 08:02:10;;;;;;;5.10;2.75;;;16.70;98.80;;;;;;4982587;28;20473;-77
2021/08/18 08:04:35;;;;;;;2.80;2.30;;;16.70;98.70;;;;;;4972712;28;20633;-72
2021/08/18 08:07:01;;;;;;;5.03;2.58;;;16.60;98.60;;;;;;4984561;28;20185;-73
2021/08/18 08:09:26;;;;;;;6.55;3.00;;;16.60;98.60;;;;;;4978593;28;20082;-73
2021/08/18 08:11:52;;;;;;;4.20;2.40;;;16.70;98.50;;;;;;4977554;28;20030;-73
2021/08/18 08:14:17;;;;;;;4.70;2.72;;;16.90;98.40;;;;;;4980414;28;20051;-71
2021/08/18 08:16:43;;;;;;;4.15;2.40;;;16.90;97.50;;;;;;4975475;28;20121;-71
2021/08/18 08:19:08;;;;;;;5.00;2.42;;;16.90;97.20;;;;;;4982717;28;20046;-70
2021/08/18 08:21:34;;;;;;;7.55;2.72;;;16.80;97.80;;;;;;4979661;28;20069;-71
2021/08/18 08:23:59;;;;;;;3.72;2.42;;;16.80;98.30;;;;;;4980218;28;20034;-71
2021/08/18 08:26:25;;;;;;;4.38;2.95;;;16.90;98.60;;;;;;4980437;28;20027;-71
2021/08/18 08:28:50;;;;;;;3.70;2.70;;;17.10;98.20;;;;;;4973148;28;20038;-70
2021/08/18 08:31:16;;;;;;;4.00;2.58;;;17.20;97.50;;;;;;4978835;28;20489;-71
2021/08/18 08:33:42;;;;;;;4.07;2.83;;;17.40;97.50;;;;;;4982580;28;20037;-71
2021/08/18 08:36:07;;;;;;;3.83;2.25;;;17.60;96.20;;;;;;4983219;28;20035;-71
2021/08/18 08:38:33;;;;;;;4.88;2.83;;;17.60;96.10;;;;;;4970786;28;20030;-71
2021/08/18 08:40:58;;;;;;;2.90;2.25;;;17.60;96.20;;;;;;4978171;28;20485;-71
2021/08/18 08:43:24;;;;;;;3.15;2.13;;;17.50;95.80;;;;;;4971103;28;20019;-71
2021/08/18 08:45:50;;;;;;;3.00;2.40;;;17.60;95.70;;;;;;4970243;28;20034;-71
2021/08/18 08:48:17;;;;;;;5.57;2.35;;;17.70;95.60;;;;;;4969099;28;20035;-71
2021/08/18 08:50:49;;;;;;;3.00;2.25;;;17.70;95.20;;;;;;4984737;28;20503;-71
2021/08/18 08:53:14;;;;;;;4.63;2.42;;;17.70;94.80;;;;;;4984327;28;20121;-71
2021/08/18 08:55:41;;;;;;;3.45;2.30;;;17.60;94.90;;;;;;4987622;28;20170;-72
2021/08/18 08:58:06;;;;;;;6.63;2.08;;;17.70;94.90;;;;;;4985391;28;20067;-72
2021/08/18 09:00:32;;;;;;;7.15;2.45;;;17.70;94.70;;;;;;4977916;28;20022;-71
2021/08/18 09:03:15;;;;;;;7.20;2.10;;;17.80;94.30;;;;;;4984664;28;20519;-70
2021/08/18 09:05:45;;;;;;;4.00;2.20;;;17.90;94.20;;;;;;4981128;28;20034;-71
2021/08/18 09:08:21;;;;;;;3.75;2.50;;;17.90;94.50;;;;;;4973200;28;20469;-70
2021/08/18 09:11:07;;;;;;;3.15;2.25;;;17.80;94.70;;;;;;4970079;28;20105;-71
2021/08/18 09:13:52;;;;;;;5.03;1.70;;;17.80;94.70;;;;;;4970024;28;20527;-70
2021/08/18 09:16:21;;;;;;;4.10;2.30;;;17.90;94.90;;;;;;4983175;28;20034;-70
2021/08/18 09:18:50;;;;;;;5.72;2.35;;;17.80;94.70;;;;;;4969999;28;20019;-70
2021/08/18 09:21:37;;;;;;;3.60;2.20;;;17.80;95.10;;;;;;4969719;28;20026;-70
2021/08/18 09:24:12;;;;;;;5.03;2.20;;;17.90;94.50;;;;;;4976593;28;20030;-70
2021/08/18 09:26:43;;;;;;;3.20;2.40;;;18.10;94.70;;;;;;4980372;28;20058;-70
2021/08/18 09:29:09;;;;;;;3.85;2.03;;;18.10;93.30;;;;;;4969580;28;20089;-71
2021/08/18 09:31:35;;;;;;;3.35;2.10;;;18.10;93.30;;;;;;4980095;28;20473;-71
2021/08/18 09:34:01;;;;;;;1.95;1.70;;;18.10;94.00;;;;;;4981787;28;20093;-71
2021/08/18 09:36:29;;;;;;;3.33;2.03;;;18.20;94.30;;;;;;4974130;28;20022;-70
2021/08/18 09:39:18;;;;;;;4.07;2.10;;;18.40;93.40;;;;;;4988847;28;20355;-70
2021/08/18 09:41:43;;;;;;;4.10;2.00;;;18.50;92.40;;;;;;4980293;28;20030;-70
2021/08/18 09:44:09;;;;;;;3.35;2.10;;;18.50;92.00;;;;;;4972557;28;20019;-70
2021/08/18 09:46:36;;;;;;;3.20;2.15;;;18.60;92.20;;;;;;4969561;28;20027;-70
2021/08/18 09:49:10;;;;;;;3.10;1.90;;;18.50;91.40;;;;;;4969453;28;20559;-70
2021/08/18 09:51:36;;;;;;;2.90;2.10;;;18.50;92.60;;;;;;4980243;28;20057;-70
2021/08/18 09:54:15;;;;;;;2.90;2.40;;;18.50;91.70;;;;;;4974598;28;20097;-70
2021/08/18 09:56:47;;;;;;;2.45;1.85;;;18.50;91.80;;;;;;4976274;28;20400;-70
2021/08/18 09:59:14;;;;;;;2.53;1.90;;;18.60;91.50;;;;;;4983339;28;20144;-70
2021/08/18 10:01:40;;;;;;;3.35;2.22;;;18.70;91.10;;;;;;4983844;28;20110;-70
2021/08/18 10:04:07;;;;;;;2.97;1.83;;;18.60;91.00;;;;;;4969380;28;20101;-70
2021/08/18 10:06:32;;;;;;;4.85;2.55;;;18.70;91.00;;;;;;4972298;28;20080;-71
2021/08/18 10:08:58;;;;;;;4.30;2.47;;;18.80;91.50;;;;;;4970201;28;20413;-70
2021/08/18 10:11:26;;;;;;;2.20;1.77;;;18.90;91.60;;;;;;4979205;28;20428;-70
2021/08/18 10:13:53;;;;;;;2.15;1.63;;;19.00;90.70;;;;;;4969359;28;20074;-70
2021/08/18 10:16:19;;;;;;;4.07;1.70;;;19.00;91.70;;;;;;4980680;28;20030;-70
2021/08/18 10:18:45;;;;;;;2.65;1.92;;;19.20;90.00;;;;;;4978990;28;20080;-71
2021/08/18 10:21:19;;;;;;;3.38;1.83;;;19.40;90.50;;;;;;4973871;28;20030;-70
2021/08/18 10:23:46;;;;;;;2.25;1.75;;;19.60;87.80;;;;;;4969363;28;20034;-71
2021/08/18 10:26:35;;;;;;;2.88;1.88;;;19.80;86.10;;;;;;4968991;28;20022;-71
2021/08/18 10:29:15;;;;;;;3.67;1.80;;;19.90;86.10;;;;;;4986589;28;20027;-71
2021/08/18 10:31:46;;;;;;;2.28;1.80;;;19.90;85.00;;;;;;4986780;28;20027;-71
2021/08/18 10:34:33;;;;;;;1.95;1.55;;;20.10;84.90;;;;;;4983940;28;20030;-71
2021/08/18 10:37:03;;;;;;;1.77;1.60;;;20.10;86.50;;;;;;4968997;28;20031;-71
2021/08/18 10:39:39;;;;;;;2.22;1.60;;;20.20;83.60;;;;;;4977545;28;20057;-72
2021/08/18 10:42:14;;;;;;;2.75;1.77;;;20.20;82.30;;;;;;4983164;28;20058;-70
2021/08/18 10:44:48;;;;;;;3.45;2.38;;;20.10;81.00;;;;;;4988831;28;20034;-71
2021/08/18 10:47:15;;;;;;;4.43;1.67;;;20.10;81.40;;;;;;4988171;28;20126;-71
2021/08/18 10:49:41;;;;;;;2.65;1.83;;;20.10;80.50;;;;;;4979416;28;20398;-70
2021/08/18 10:52:07;;;;;;;4.10;1.88;;;19.90;81.80;;;;;;4999212;28;20030;-70
2021/08/18 10:54:33;;;;;;;2.40;1.67;;;19.70;80.90;;;;;;4970366;28;20517;-71
2021/08/18 10:57:00;;;;;;;3.70;1.92;;;19.60;81.10;;;;;;4972614;28;20085;-70
2021/08/18 10:59:37;;;;;;;2.40;1.70;;;19.60;80.10;;;;;;4985406;28;20108;-70
2021/08/18 11:02:29;;;;;;;4.63;1.80;;;19.60;80.50;;;;;;4980611;28;20030;-71
2021/08/18 11:04:54;;;;;;;2.42;1.77;;;19.60;81.30;;;;;;4990822;28;20097;-71
2021/08/18 11:07:20;;;;;;;2.83;1.80;;;19.50;82.10;;;;;;4977330;28;20482;-71
2021/08/18 11:09:48;;;;;;;2.88;1.58;;;19.40;82.70;;;;;;4980027;28;20075;-71
2021/08/18 11:12:49;;;;;;;4.10;1.60;;;19.30;82.70;;;;;;4982942;28;20033;-70
2021/08/18 11:15:14;;;;;;;2.05;1.58;;;19.20;82.70;;;;;;4973068;28;20348;-70
2021/08/18 11:17:42;;;;;;;2.08;1.48;;;19.20;83.20;;;;;;4972398;28;20029;-70
2021/08/18 11:20:16;;;;;;;3.08;1.77;;;19.30;84.90;;;;;;4972298;28;20030;-70
2021/08/18 11:22:42;;;;;;;3.15;1.60;;;19.40;83.10;;;;;;4978564;28;20027;-71
2021/08/18 11:25:08;;;;;;;3.83;1.65;;;19.50;81.80;;;;;;4977121;28;20027;-70
2021/08/18 11:27:33;;;;;;;3.95;2.00;;;19.60;81.30;;;;;;4972129;28;20086;-71
2021/08/18 11:29:59;;;;;;;3.13;1.80;;;19.60;80.30;;;;;;4972007;28;20019;-70
2021/08/18 11:32:26;;;;;;;4.28;1.80;;;19.50;80.40;;;;;;4973802;28;20058;-71
2021/08/18 11:34:52;;;;;;;2.15;1.75;;;19.50;81.80;;;;;;4971867;28;20034;-70
2021/08/18 11:37:17;;;;;;;3.40;1.80;;;19.50;81.30;;;;;;4971753;28;20023;-71
2021/08/18 11:39:48;;;;;;;2.42;1.60;;;19.60;83.20;;;;;;4971924;28;20141;-71
2021/08/18 11:42:19;;;;;;;2.65;1.73;;;19.70;80.20;;;;;;4983639;28;20096;-70
2021/08/18 11:44:46;;;;;;;2.40;1.80;;;19.80;79.40;;;;;;4971920;28;20547;-70
2021/08/18 11:47:14;;;;;;;4.28;1.80;;;19.70;78.70;;;;;;4971354;28;20229;-71
2021/08/18 11:49:45;;;;;;;2.55;1.90;;;19.60;79.10;;;;;;4971952;28;20081;-70
2021/08/18 11:52:16;;;;;;;6.18;1.95;;;19.70;79.60;;;;;;4996541;28;20381;-70
2021/08/18 11:54:41;;;;;;;1.98;1.77;;;19.60;80.10;;;;;;4976720;28;20030;-70
2021/08/18 11:57:08;;;;;;;3.97;1.80;;;19.70;79.90;;;;;;4971332;28;20031;-70
2021/08/18 11:59:35;;;;;;;4.03;2.13;;;19.70;79.00;;;;;;4981283;28;20053;-70
2021/08/18 12:02:01;;;;;;;5.03;2.50;;;19.70;79.70;;;;;;4974650;28;20034;-70
2021/08/18 12:04:27;;;;;;;3.13;1.90;;;19.60;78.40;;;;;;4980157;28;20105;-70
2021/08/18 12:07:16;;;;;;;3.67;2.20;;;19.50;80.00;;;;;;4989568;28;20038;-70
2021/08/18 12:10:18;;;;;;;2.58;2.17;;;19.30;81.50;;;;;;4988602;28;20735;-71
2021/08/18 12:12:44;;;;;;;3.50;1.70;;;19.20;81.70;;;;;;4990495;28;20473;-70
2021/08/18 12:15:15;;;;;;;4.32;1.98;;;19.10;81.10;;;;;;4976279;28;20607;-70
2021/08/18 12:17:43;;;;;;;3.08;1.98;;;19.00;81.70;;;;;;4978891;28;20027;-71
2021/08/18 12:20:26;;;;;;;3.30;1.63;;;18.80;82.50;;;;;;4974050;28;20041;-70
2021/08/18 12:22:52;;;;;;;3.42;2.22;;;18.80;83.50;;;;;;4970832;28;20609;-70
2021/08/18 12:25:17;;;;;;;3.40;1.77;;;18.80;84.00;;;;;;4970896;28;20125;-70
2021/08/18 12:27:43;;;;;;;1.92;1.70;;;18.80;83.60;;;;;;4971097;28;20701;-70
2021/08/18 12:30:12;;;;;;;3.50;1.92;;;18.80;84.60;;;;;;4974464;28;20027;-70
2021/08/18 12:32:39;;;;;;;3.35;1.90;;;18.90;84.40;;;;;;4980841;28;20046;-70
2021/08/18 12:35:10;;;;;;;3.70;1.95;;;19.00;83.30;;;;;;4970798;28;20034;-70
2021/08/18 12:37:39;;;;;;;3.38;1.83;;;19.00;83.50;;;;;;4970677;28;20022;-70
2021/08/18 12:40:09;;;;;;;1.83;1.45;;;18.90;83.70;;;;;;4987891;28;20042;-70
2021/08/18 12:42:37;;;;;;;2.07;1.70;;;19.00;83.20;;;;;;4994139;28;20080;-70